Gabbs, Nevada
Current Conditions -  °F | °C
As of 5:56 PM on Sunday 21 Dec 2014 (Local Time) from KNFL Reporting Station
Overcast Overcast  
Wind Chill: 57°   Ceiling: 6500
Heat Index: 57°   Visibility: 10mi
Dew Point: 42°   Wind: 18mph
Humidity: 57%   Direction: 280°W
Pressure: 30.21"   Gusts: NA
Location:  38.87°N, 117.92°W
Report Text: KNFL 220156Z 28016KT 10SM BKN065 OVC120 14/06 A3021 RMK AO2 SLP194 T01390056
Loading
Personal Weather Stations






























Interactive Weather Map New forecast layout! Learn more

10-Day Weather Forecast

Advertisements
Track Severe Weather on mobile